Time;durP1;ratioP1;P1;durP2;ratioP2;P2;SDS_P1;SDS_P2;PMS_P1;PMS_P2;Temp;Humidity;BMP_temperature;BMP_pressure;BME280_temperature;BME280_humidity;BME280_pressure;Samples;Min_cycle;Max_cycle;Signal;HPM_P1;HPM_P2
2022/08/19 00:01:44;;;;;;;26.02;19.83;;;21.70;99.90;;;;;;4118575;28;20183;-93
2022/08/19 00:03:44;;;;;;;30.00;19.83;;;21.70;99.90;;;;;;4150469;28;20191;-95
2022/08/19 00:05:45;;;;;;;30.45;22.77;;;21.70;99.90;;;;;;4118236;28;20261;-92
2022/08/19 00:07:46;;;;;;;32.20;23.67;;;21.80;99.90;;;;;;4150802;28;20576;-93
2022/08/19 00:09:47;;;;;;;33.45;23.90;;;21.80;99.90;;;;;;4150663;28;20165;-96
2022/08/19 00:11:48;;;;;;;39.95;28.25;;;21.70;99.90;;;;;;4118440;28;20174;-95
2022/08/19 00:13:50;;;;;;;38.13;27.83;;;21.60;99.90;;;;;;4150610;28;20232;-94
2022/08/19 00:15:51;;;;;;;32.95;24.45;;;21.70;99.90;;;;;;4150461;28;20244;-95
2022/08/19 00:17:52;;;;;;;44.03;28.92;;;21.70;99.90;;;;;;4133997;28;20197;-94
2022/08/19 00:19:52;;;;;;;36.80;24.85;;;21.70;99.90;;;;;;4150233;28;20185;-94
2022/08/19 00:21:54;;;;;;;30.73;23.77;;;21.80;99.90;;;;;;4118060;28;20269;-93
2022/08/19 00:23:57;;;;;;;41.30;28.17;;;21.80;99.90;;;;;;4150553;28;20169;-95
2022/08/19 00:25:58;;;;;;;37.70;27.48;;;21.70;99.90;;;;;;4150318;28;20208;-94
2022/08/19 00:27:59;;;;;;;36.83;25.33;;;21.70;99.90;;;;;;4118045;28;20205;-93
2022/08/19 00:30:02;;;;;;;32.92;25.50;;;21.60;99.90;;;;;;4150260;28;20256;-95
2022/08/19 00:32:04;;;;;;;41.15;26.25;;;21.60;99.90;;;;;;4150253;28;20215;-94
2022/08/19 00:34:04;;;;;;;44.47;28.50;;;21.50;99.90;;;;;;4150240;28;20181;-92
2022/08/19 00:36:07;;;;;;;41.05;28.73;;;21.40;99.90;;;;;;4118041;28;20689;-94
2022/08/19 00:38:08;;;;;;;39.95;28.38;;;21.30;99.90;;;;;;4150197;28;20199;-94
2022/08/19 00:40:09;;;;;;;41.15;30.17;;;21.30;99.90;;;;;;4118115;28;20178;-94
2022/08/19 00:42:09;;;;;;;41.13;28.85;;;21.30;99.90;;;;;;4150095;28;20173;-95
2022/08/19 00:44:19;;;;;;;39.83;28.35;;;21.20;99.90;;;;;;4117804;28;20547;-92
2022/08/19 00:46:20;;;;;;;38.08;28.20;;;21.20;99.90;;;;;;4150204;28;20231;-92
2022/08/19 00:48:23;;;;;;;42.45;29.42;;;21.10;99.90;;;;;;4117347;28;20281;-92
2022/08/19 00:50:24;;;;;;;39.38;28.42;;;21.00;99.90;;;;;;4149791;28;20181;-94
2022/08/19 00:52:31;;;;;;;39.53;27.30;;;21.00;99.90;;;;;;4149662;28;20188;-94
2022/08/19 00:54:33;;;;;;;42.05;28.73;;;20.90;99.90;;;;;;4149636;28;20220;-91
2022/08/19 00:56:34;;;;;;;39.10;28.10;;;20.90;99.90;;;;;;4148837;28;20238;-92
2022/08/19 00:58:57;;;;;;;35.58;24.95;;;20.80;99.90;;;;;;4232577;27;20652;-95
2022/08/19 01:00:59;;;;;;;36.95;24.20;;;20.60;99.90;;;;;;4212321;28;20176;-94
2022/08/19 01:02:59;;;;;;;33.72;24.52;;;20.60;99.90;;;;;;4212067;28;20256;-96
2022/08/19 01:05:04;;;;;;;35.85;25.65;;;20.60;99.90;;;;;;4212114;28;20661;-95
2022/08/19 01:07:05;;;;;;;34.03;23.95;;;20.60;99.90;;;;;;4229233;28;20303;-95
2022/08/19 01:09:07;;;;;;;38.00;27.35;;;20.50;99.90;;;;;;4211969;28;20194;-94
2022/08/19 01:11:12;;;;;;;32.63;24.20;;;20.40;99.90;;;;;;4212593;28;20174;-93
2022/08/19 01:13:15;;;;;;;31.95;24.02;;;20.30;99.90;;;;;;4212178;28;20181;-93
2022/08/19 01:15:20;;;;;;;35.83;25.17;;;20.40;99.90;;;;;;4212174;28;20162;-94
2022/08/19 01:17:22;;;;;;;38.45;24.38;;;20.40;99.90;;;;;;4228680;28;20240;-95
2022/08/19 01:19:35;;;;;;;32.90;22.63;;;20.30;99.90;;;;;;4212398;28;20177;-95
2022/08/19 01:22:03;;;;;;;32.20;23.17;;;20.30;99.90;;;;;;4212008;28;20174;-96
2022/08/19 01:24:04;;;;;;;35.70;25.40;;;20.30;99.90;;;;;;4212058;28;20177;-94
2022/08/19 01:26:04;;;;;;;32.08;23.58;;;20.30;99.90;;;;;;4212110;28;20167;-95
2022/08/19 01:28:05;;;;;;;30.00;22.52;;;20.20;99.90;;;;;;4211736;28;20305;-92
2022/08/19 01:30:07;;;;;;;31.42;22.80;;;20.20;99.90;;;;;;4211957;28;20219;-93
2022/08/19 01:32:11;;;;;;;32.30;20.95;;;20.20;99.90;;;;;;4212063;28;20225;-93
2022/08/19 01:34:12;;;;;;;33.70;22.92;;;20.10;99.90;;;;;;4212134;28;20631;-96
2022/08/19 01:36:23;;;;;;;34.13;22.88;;;20.10;99.90;;;;;;4212480;28;20212;-93
2022/08/19 01:38:26;;;;;;;30.85;23.05;;;20.10;99.90;;;;;;4211906;28;20202;-95
2022/08/19 01:40:32;;;;;;;32.75;23.00;;;20.10;99.90;;;;;;4228624;28;20314;-96
2022/08/19 01:42:33;;;;;;;31.35;21.48;;;20.10;99.90;;;;;;4211977;28;20216;-93
2022/08/19 01:44:36;;;;;;;37.30;25.30;;;20.00;99.90;;;;;;4211613;28;20166;-94
2022/08/19 01:46:37;;;;;;;35.38;21.80;;;20.00;99.90;;;;;;4228398;28;20177;-96
2022/08/19 01:48:40;;;;;;;33.10;23.83;;;20.00;99.90;;;;;;4228410;28;20853;-95
2022/08/19 01:50:41;;;;;;;32.00;25.23;;;20.00;99.90;;;;;;4211701;28;20278;-92
2022/08/19 01:52:44;;;;;;;41.78;26.75;;;20.00;99.90;;;;;;4227959;28;20196;-94
2022/08/19 01:54:44;;;;;;;37.65;25.83;;;19.90;99.90;;;;;;4211880;28;20178;-94
2022/08/19 01:56:45;;;;;;;33.55;24.48;;;19.90;99.90;;;;;;4211362;28;20205;-96
2022/08/19 01:59:02;;;;;;;37.65;26.17;;;19.80;99.90;;;;;;4211152;28;20214;-92
2022/08/19 02:01:04;;;;;;;36.08;24.98;;;19.70;99.90;;;;;;4212618;28;20166;-94
2022/08/19 02:03:06;;;;;;;38.13;26.23;;;19.70;99.90;;;;;;4230416;28;20184;-93
2022/08/19 02:05:08;;;;;;;36.28;23.38;;;19.70;99.90;;;;;;4211883;28;20175;-93
2022/08/19 02:07:09;;;;;;;37.63;24.05;;;19.70;99.90;;;;;;4228414;28;20669;-94
2022/08/19 02:09:10;;;;;;;35.50;22.90;;;19.80;99.90;;;;;;4205720;28;20277;-96
2022/08/19 02:11:20;;;;;;;32.90;22.48;;;19.80;99.90;;;;;;4200287;28;20175;-93
2022/08/19 02:13:21;;;;;;;33.67;23.65;;;19.70;99.90;;;;;;4200095;28;20171;-95
2022/08/19 02:15:22;;;;;;;29.23;20.48;;;19.60;99.90;;;;;;4199920;28;20548;-93
2022/08/19 02:17:22;;;;;;;32.38;23.08;;;19.60;99.90;;;;;;4199784;28;20265;-93
2022/08/19 02:19:23;;;;;;;32.95;22.35;;;19.60;99.90;;;;;;4200019;28;20257;-94
2022/08/19 02:21:24;;;;;;;33.88;23.73;;;19.70;99.90;;;;;;4200124;28;20229;-96
2022/08/19 02:23:25;;;;;;;35.70;24.13;;;19.60;99.90;;;;;;4199964;28;20204;-93
2022/08/19 02:25:25;;;;;;;34.65;23.10;;;19.60;99.90;;;;;;4200243;28;20171;-96
2022/08/19 02:27:26;;;;;;;32.90;23.33;;;19.60;99.90;;;;;;4202213;28;20203;-94
2022/08/19 02:29:27;;;;;;;33.60;23.95;;;19.60;99.90;;;;;;4200825;28;20174;-93
2022/08/19 02:31:28;;;;;;;31.23;21.30;;;19.50;99.90;;;;;;4202123;28;20263;-94
2022/08/19 02:33:29;;;;;;;38.50;23.08;;;19.50;99.90;;;;;;4201868;28;20178;-93
2022/08/19 02:35:30;;;;;;;36.38;24.33;;;19.60;99.90;;;;;;4200507;28;20178;-93
2022/08/19 02:39:50;;;;;;;31.77;21.20;;;19.40;99.90;;;;;;4217638;28;20178;-94
2022/08/19 02:41:51;;;;;;;29.95;19.20;;;19.40;99.90;;;;;;4202117;28;20229;-94
2022/08/19 02:43:57;;;;;;;31.27;20.83;;;19.40;99.90;;;;;;4219439;28;20247;-93
2022/08/19 02:45:58;;;;;;;28.27;20.17;;;19.50;99.90;;;;;;4202406;28;20619;-93
2022/08/19 02:47:59;;;;;;;30.65;20.10;;;19.50;99.90;;;;;;4199678;28;20282;-93
2022/08/19 02:50:02;;;;;;;26.52;19.63;;;19.60;99.90;;;;;;4216783;28;20163;-93
2022/08/19 02:52:03;;;;;;;32.50;20.95;;;19.40;99.90;;;;;;4202205;28;20681;-93
2022/08/19 02:54:05;;;;;;;29.35;21.33;;;19.60;99.90;;;;;;4200367;28;20175;-93
2022/08/19 02:56:07;;;;;;;32.65;20.60;;;19.60;99.90;;;;;;4201717;28;20209;-93
2022/08/19 02:58:08;;;;;;;30.83;21.00;;;19.60;99.90;;;;;;4200861;28;20678;-93
2022/08/19 03:00:12;;;;;;;32.65;19.25;;;19.30;99.90;;;;;;4206564;28;20179;-92
2022/08/19 03:02:15;;;;;;;28.52;18.95;;;19.40;99.90;;;;;;4221024;28;20170;-93
2022/08/19 03:04:16;;;;;;;31.50;17.58;;;19.40;99.90;;;;;;4201860;28;20662;-92
2022/08/19 03:06:17;;;;;;;33.90;19.38;;;19.50;99.90;;;;;;4204822;28;20194;-93
2022/08/19 03:08:22;;;;;;;27.95;19.42;;;19.40;99.90;;;;;;4203182;28;20207;-93
2022/08/19 03:10:22;;;;;;;31.20;19.20;;;19.40;99.90;;;;;;4205217;28;20266;-92
2022/08/19 03:12:23;;;;;;;29.85;18.33;;;19.40;99.90;;;;;;4200051;28;20233;-92
2022/08/19 03:14:33;;;;;;;26.95;17.33;;;19.40;99.90;;;;;;4221531;28;20181;-92
2022/08/19 03:16:53;;;;;;;31.63;19.67;;;19.40;99.90;;;;;;4220675;28;20328;-93
2022/08/19 03:19:04;;;;;;;30.88;19.88;;;19.40;99.90;;;;;;4191204;28;20302;-91
2022/08/19 03:21:14;;;;;;;28.70;18.40;;;19.40;99.90;;;;;;4203311;28;20170;-92
2022/08/19 03:23:21;;;;;;;28.98;18.33;;;19.30;99.90;;;;;;4219678;28;20154;-92
2022/08/19 03:25:25;;;;;;;27.02;18.10;;;19.30;99.90;;;;;;4204667;28;20165;-91
2022/08/19 03:27:48;;;;;;;29.50;17.23;;;19.30;99.90;;;;;;4220040;28;20186;-92
2022/08/19 03:29:54;;;;;;;28.55;16.85;;;19.30;99.90;;;;;;4218847;28;20161;-91
2022/08/19 03:31:55;;;;;;;27.63;17.23;;;19.30;99.90;;;;;;4201012;28;20182;-93
2022/08/19 03:33:56;;;;;;;25.70;16.13;;;19.40;99.90;;;;;;4202355;28;20167;-92
2022/08/19 03:36:15;;;;;;;29.88;16.88;;;19.30;99.90;;;;;;4218746;28;20178;-92
2022/08/19 03:38:37;;;;;;;26.45;15.30;;;19.20;99.90;;;;;;4220320;28;20221;-91
2022/08/19 03:40:42;;;;;;;29.40;16.95;;;19.00;99.90;;;;;;4219392;28;20162;-92
2022/08/19 03:42:43;;;;;;;26.92;15.85;;;19.00;99.90;;;;;;4201888;28;20704;-91
2022/08/19 03:44:44;;;;;;;25.20;15.70;;;19.10;99.90;;;;;;4218564;28;20175;-92
2022/08/19 03:46:47;;;;;;;21.02;15.30;;;19.10;99.90;;;;;;4204087;28;20240;-92
2022/08/19 03:48:56;;;;;;;24.92;14.43;;;19.10;99.90;;;;;;4202283;28;20669;-93
2022/08/19 03:50:58;;;;;;;25.20;15.63;;;19.10;99.90;;;;;;4202746;28;20166;-91
2022/08/19 03:53:00;;;;;;;24.85;15.50;;;19.00;99.90;;;;;;4201406;28;20182;-92
2022/08/19 03:55:04;;;;;;;28.65;16.00;;;18.90;99.90;;;;;;4199935;28;20224;-91
2022/08/19 03:57:08;;;;;;;27.13;15.27;;;18.80;99.90;;;;;;4202227;28;20174;-93
2022/08/19 03:59:13;;;;;;;26.58;15.45;;;18.80;99.90;;;;;;4219395;28;20590;-92
2022/08/19 04:01:33;;;;;;;29.38;17.23;;;18.80;99.90;;;;;;4202008;28;20657;-92
2022/08/19 04:03:47;;;;;;;29.80;13.43;;;18.80;99.90;;;;;;4220461;28;20182;-91
2022/08/19 04:06:20;;;;;;;23.70;14.75;;;18.60;99.90;;;;;;4219013;28;20184;-92
2022/08/19 04:08:26;;;;;;;21.92;13.43;;;18.60;99.90;;;;;;4209854;28;20209;-91
2022/08/19 04:10:34;;;;;;;27.90;14.75;;;18.60;99.90;;;;;;4219026;28;20162;-91
2022/08/19 04:12:37;;;;;;;26.38;13.50;;;18.60;99.90;;;;;;4217571;28;20299;-91
2022/08/19 04:14:37;;;;;;;25.08;15.10;;;18.50;99.90;;;;;;4203080;28;20179;-92
2022/08/19 04:16:47;;;;;;;26.13;15.55;;;18.40;99.90;;;;;;4222046;28;20188;-91
2022/08/19 04:19:11;;;;;;;22.70;14.10;;;18.40;99.90;;;;;;4220333;28;20210;-92
2022/08/19 04:21:21;;;;;;;21.85;14.10;;;18.30;99.90;;;;;;4218627;28;20177;-91
2022/08/19 04:23:23;;;;;;;26.35;15.32;;;18.30;99.90;;;;;;4203955;28;20181;-90
2022/08/19 04:25:24;;;;;;;26.58;14.88;;;18.30;99.90;;;;;;4219548;28;20162;-91
2022/08/19 04:27:25;;;;;;;24.08;14.82;;;18.20;99.90;;;;;;4203274;28;20191;-92
2022/08/19 04:29:26;;;;;;;25.60;14.80;;;18.30;99.90;;;;;;4223412;28;20205;-93
2022/08/19 04:31:30;;;;;;;24.98;15.13;;;18.30;99.90;;;;;;4201663;28;20186;-92
2022/08/19 04:33:37;;;;;;;25.95;14.52;;;18.20;99.90;;;;;;4201871;28;20606;-91
2022/08/19 04:35:41;;;;;;;28.85;14.40;;;18.20;99.90;;;;;;4204997;28;20213;-91
2022/08/19 04:37:41;;;;;;;29.52;14.50;;;18.20;99.90;;;;;;4222631;28;20210;-92
2022/08/19 04:44:25;;;;;;;24.60;13.75;;;18.10;99.90;;;;;;4217567;28;20222;-92
2022/08/19 04:46:31;;;;;;;28.73;14.65;;;18.10;99.90;;;;;;4203931;28;20187;-92
2022/08/19 04:48:32;;;;;;;21.02;12.52;;;18.20;99.90;;;;;;4203530;28;20198;-93
2022/08/19 04:50:48;;;;;;;26.02;12.68;;;18.30;99.90;;;;;;4221293;28;20710;-91
2022/08/19 04:52:51;;;;;;;24.10;13.15;;;18.50;99.90;;;;;;4204979;28;20167;-90
2022/08/19 04:54:55;;;;;;;28.90;14.00;;;18.50;99.90;;;;;;4219952;28;20680;-92
2022/08/19 04:56:56;;;;;;;24.95;11.93;;;18.40;99.90;;;;;;4204353;28;20190;-91
2022/08/19 04:58:57;;;;;;;23.83;12.25;;;18.40;99.90;;;;;;4200724;28;20195;-91
2022/08/19 05:00:59;;;;;;;25.67;12.70;;;18.40;99.90;;;;;;4199760;28;20209;-91
2022/08/19 05:03:03;;;;;;;26.60;13.27;;;18.30;99.90;;;;;;4204284;28;20210;-91
2022/08/19 05:05:19;;;;;;;24.88;12.85;;;18.20;99.90;;;;;;4218791;28;20182;-91
2022/08/19 05:07:23;;;;;;;18.05;11.98;;;18.10;99.90;;;;;;4202946;28;20565;-93
2022/08/19 05:09:23;;;;;;;22.08;12.02;;;18.00;99.90;;;;;;4205588;28;20190;-91
2022/08/19 05:11:30;;;;;;;21.45;11.77;;;18.00;99.90;;;;;;4220195;28;20186;-92
2022/08/19 05:13:34;;;;;;;20.02;11.02;;;18.10;99.90;;;;;;4219008;28;20142;-90
2022/08/19 05:15:35;;;;;;;20.88;12.60;;;18.10;99.90;;;;;;4200372;28;20163;-91
2022/08/19 05:17:36;;;;;;;19.48;12.82;;;18.10;99.90;;;;;;4200444;28;20364;-93
2022/08/19 05:24:23;;;;;;;19.90;12.35;;;18.10;99.90;;;;;;4220407;28;20239;-91
2022/08/19 05:26:25;;;;;;;25.00;12.50;;;18.10;99.90;;;;;;4204341;28;20234;-91
2022/08/19 05:28:27;;;;;;;18.85;12.23;;;18.10;99.90;;;;;;4222934;28;20240;-92
2022/08/19 05:30:37;;;;;;;23.80;13.05;;;18.20;99.90;;;;;;4224393;28;20178;-91
2022/08/19 05:32:45;;;;;;;20.63;11.18;;;18.30;99.90;;;;;;4203477;28;20179;-92
2022/08/19 05:34:49;;;;;;;22.20;11.40;;;18.30;99.90;;;;;;4218852;28;20186;-91
2022/08/19 05:36:51;;;;;;;21.65;12.38;;;18.30;99.90;;;;;;4204064;28;20268;-91
2022/08/19 05:39:12;;;;;;;20.85;11.88;;;18.30;99.90;;;;;;4217212;28;20190;-92
2022/08/19 05:41:14;;;;;;;19.33;11.52;;;18.30;99.90;;;;;;4205173;28;20171;-91
2022/08/19 05:43:15;;;;;;;23.70;13.02;;;18.30;99.90;;;;;;4222987;28;20157;-92
2022/08/19 05:45:16;;;;;;;23.95;12.02;;;18.30;99.90;;;;;;4225323;28;20264;-91
2022/08/19 05:47:19;;;;;;;25.42;12.30;;;18.20;99.90;;;;;;4207201;28;20193;-91
2022/08/19 05:49:25;;;;;;;26.55;13.05;;;18.30;99.90;;;;;;4207205;28;20206;-91
2022/08/19 05:51:27;;;;;;;19.92;11.75;;;18.50;99.90;;;;;;4209213;28;20171;-92
2022/08/19 05:53:27;;;;;;;26.13;11.57;;;18.50;99.90;;;;;;4207728;28;20167;-91
2022/08/19 05:55:29;;;;;;;26.80;12.18;;;18.60;99.90;;;;;;4227663;28;20174;-91
2022/08/19 05:57:31;;;;;;;18.58;11.20;;;18.70;99.90;;;;;;4207755;28;20253;-90
2022/08/19 05:59:35;;;;;;;18.92;9.20;;;18.80;99.90;;;;;;4209667;28;20170;-91
2022/08/19 06:01:56;;;;;;;24.63;10.52;;;18.90;99.90;;;;;;4221708;28;20177;-91
2022/08/19 06:03:57;;;;;;;16.23;10.20;;;19.30;99.90;;;;;;4206215;28;20682;-91
2022/08/19 06:05:59;;;;;;;20.15;11.07;;;19.30;99.90;;;;;;4224797;28;20237;-92
2022/08/19 06:07:59;;;;;;;18.08;10.75;;;19.50;99.90;;;;;;4222632;28;20231;-91
2022/08/19 06:10:07;;;;;;;19.98;10.93;;;19.90;99.90;;;;;;4226056;28;20173;-95
2022/08/19 06:12:09;;;;;;;21.58;10.88;;;20.10;99.90;;;;;;4209196;28;20190;-91
2022/08/19 06:14:17;;;;;;;20.85;11.50;;;20.40;99.90;;;;;;4224147;28;20212;-92
2022/08/19 06:16:23;;;;;;;23.65;11.65;;;20.50;99.90;;;;;;4211897;28;20186;-94
2022/08/19 06:18:24;;;;;;;20.42;11.32;;;20.50;99.90;;;;;;4206734;28;20222;-92
2022/08/19 06:20:25;;;;;;;18.05;10.82;;;20.70;99.90;;;;;;4208014;28;20167;-91
2022/08/19 06:22:30;;;;;;;19.20;10.95;;;20.60;99.90;;;;;;4226239;28;20739;-92
2022/08/19 06:24:31;;;;;;;22.13;11.02;;;20.90;99.90;;;;;;4206089;28;20191;-92
2022/08/19 06:26:35;;;;;;;17.38;10.05;;;21.00;99.90;;;;;;4204665;28;20183;-89
2022/08/19 06:28:35;;;;;;;22.08;10.23;;;21.00;99.90;;;;;;4204456;28;20207;-92
2022/08/19 06:30:36;;;;;;;17.45;8.65;;;21.00;99.90;;;;;;4202373;28;20178;-91
2022/08/19 06:32:40;;;;;;;20.83;9.48;;;20.90;99.90;;;;;;4223247;28;20185;-91
2022/08/19 06:34:42;;;;;;;18.15;9.20;;;20.90;99.90;;;;;;4222390;28;20192;-91
2022/08/19 06:36:48;;;;;;;17.27;8.73;;;20.80;99.90;;;;;;4223211;28;20212;-90
2022/08/19 06:38:49;;;;;;;14.05;8.70;;;21.10;99.90;;;;;;4221311;28;20309;-93
2022/08/19 06:40:50;;;;;;;17.88;8.50;;;21.20;99.90;;;;;;4208346;28;20163;-96
2022/08/19 06:42:52;;;;;;;14.82;8.23;;;21.10;99.90;;;;;;4222725;28;20186;-95
2022/08/19 06:44:53;;;;;;;15.77;9.23;;;21.30;99.90;;;;;;4203114;28;20167;-91
2022/08/19 06:46:55;;;;;;;14.63;7.93;;;21.10;99.90;;;;;;4223154;28;20174;-96
2022/08/19 06:48:57;;;;;;;17.13;8.75;;;21.10;99.90;;;;;;4222583;28;20185;-94
2022/08/19 06:50:58;;;;;;;14.80;8.52;;;21.30;99.90;;;;;;4237312;28;20177;-91
2022/08/19 06:53:02;;;;;;;23.38;8.43;;;21.30;99.90;;;;;;4226439;28;20702;-92
2022/08/19 06:55:04;;;;;;;14.82;7.72;;;21.50;99.90;;;;;;4223887;28;20174;-90
2022/08/19 06:57:06;;;;;;;15.05;8.15;;;21.70;99.90;;;;;;4207296;28;20179;-92
2022/08/19 06:59:27;;;;;;;15.50;8.30;;;21.60;99.90;;;;;;4206541;28;20202;-90
2022/08/19 07:01:32;;;;;;;17.92;7.20;;;21.60;99.90;;;;;;4220305;28;20170;-91
2022/08/19 07:03:35;;;;;;;13.82;6.97;;;21.70;99.90;;;;;;4225930;28;20154;-94
2022/08/19 07:05:43;;;;;;;15.07;6.57;;;21.60;99.90;;;;;;4203626;28;20619;-90
2022/08/19 07:07:58;;;;;;;18.95;7.05;;;22.00;99.90;;;;;;4225793;28;20180;-91
2022/08/19 07:10:15;;;;;;;13.55;6.78;;;22.30;99.90;;;;;;4221446;28;20178;-93
2022/08/19 07:12:19;;;;;;;18.30;6.90;;;22.40;99.90;;;;;;4223301;28;20273;-90
2022/08/19 07:14:27;;;;;;;16.38;6.85;;;22.60;99.90;;;;;;4226120;28;20174;-91
2022/08/19 07:16:31;;;;;;;11.95;6.32;;;23.10;99.90;;;;;;4224370;28;20656;-91
2022/08/19 07:18:32;;;;;;;11.82;5.72;;;23.50;99.90;;;;;;4205853;28;20261;-91
2022/08/19 07:20:33;;;;;;;16.65;6.30;;;23.60;99.90;;;;;;4205922;28;20175;-90
2022/08/19 07:22:34;;;;;;;15.20;6.03;;;23.70;99.90;;;;;;4220013;28;20186;-91
2022/08/19 07:24:41;;;;;;;13.55;6.13;;;23.90;99.90;;;;;;4223209;28;20269;-90
2022/08/19 07:26:43;;;;;;;19.85;7.18;;;24.00;99.90;;;;;;4220748;28;20198;-91
2022/08/19 07:28:44;;;;;;;16.60;6.55;;;24.00;99.90;;;;;;4223686;28;20198;-91
2022/08/19 07:30:45;;;;;;;12.75;6.70;;;23.80;99.90;;;;;;4206803;28;20204;-95
2022/08/19 07:32:48;;;;;;;13.23;6.18;;;23.60;99.90;;;;;;4202321;28;20636;-92
2022/08/19 07:34:48;;;;;;;17.80;7.78;;;23.60;99.90;;;;;;4206154;28;20179;-90
2022/08/19 07:36:49;;;;;;;14.43;7.10;;;23.70;99.90;;;;;;4205672;28;20288;-93
2022/08/19 07:38:54;;;;;;;16.17;6.82;;;23.60;99.90;;;;;;4205465;28;20226;-93
2022/08/19 07:41:00;;;;;;;16.65;7.78;;;23.30;99.90;;;;;;4223828;28;20184;-92
2022/08/19 07:43:02;;;;;;;21.98;7.10;;;23.30;99.90;;;;;;4237922;28;20177;-91
2022/08/19 07:45:05;;;;;;;14.30;7.18;;;23.20;99.90;;;;;;4222662;28;20201;-92
2022/08/19 07:47:06;;;;;;;15.45;7.72;;;23.00;99.90;;;;;;4220028;28;20173;-92
2022/08/19 07:49:17;;;;;;;14.10;7.15;;;23.00;99.90;;;;;;4209147;28;20752;-92
2022/08/19 07:51:25;;;;;;;15.23;6.68;;;23.20;99.90;;;;;;4220764;28;20182;-91
2022/08/19 07:53:26;;;;;;;12.63;7.32;;;22.90;99.90;;;;;;4185410;28;20194;-90
2022/08/19 07:55:28;;;;;;;18.20;7.00;;;23.00;99.90;;;;;;4205754;28;20186;-91
2022/08/19 07:57:29;;;;;;;14.15;7.05;;;23.20;99.90;;;;;;4222206;28;20193;-92
2022/08/19 07:59:30;;;;;;;16.08;6.95;;;23.10;99.90;;;;;;4219150;28;20254;-91
2022/08/19 08:01:31;;;;;;;11.27;5.93;;;23.00;99.90;;;;;;4222890;28;20180;-94
2022/08/19 08:10:43;;;;;;;11.18;6.38;;;23.30;99.90;;;;;;4235370;28;20186;-92
2022/08/19 08:12:51;;;;;;;13.48;6.00;;;23.40;99.90;;;;;;4219075;28;20233;-94
2022/08/19 08:14:58;;;;;;;14.98;6.22;;;23.40;99.90;;;;;;4222554;28;20174;-91
2022/08/19 08:16:59;;;;;;;13.95;5.97;;;23.50;99.90;;;;;;4221727;28;20580;-90
2022/08/19 08:19:00;;;;;;;13.80;6.30;;;23.50;99.90;;;;;;4223292;28;20205;-89
2022/08/19 08:21:01;;;;;;;13.35;6.50;;;23.50;99.90;;;;;;4222405;28;20177;-91
2022/08/19 08:25:25;;;;;;;13.18;5.88;;;23.40;99.90;;;;;;4223364;28;20208;-93
2022/08/19 08:27:30;;;;;;;16.10;6.32;;;23.40;99.90;;;;;;4223461;28;20162;-91
2022/08/19 08:29:31;;;;;;;14.73;5.85;;;23.60;99.90;;;;;;4203071;28;20658;-91
2022/08/19 08:31:38;;;;;;;17.17;5.68;;;23.60;99.90;;;;;;4221935;28;20158;-94
2022/08/19 08:33:43;;;;;;;13.55;5.75;;;23.60;99.90;;;;;;4223653;28;20174;-94
2022/08/19 08:35:45;;;;;;;11.93;5.70;;;23.70;99.90;;;;;;4221537;28;20261;-91
2022/08/19 08:37:52;;;;;;;14.80;6.13;;;23.80;99.90;;;;;;4204561;28;20241;-91
2022/08/19 08:39:54;;;;;;;11.90;5.57;;;23.60;99.90;;;;;;4206503;28;20155;-91
2022/08/19 08:42:22;;;;;;;13.52;5.10;;;23.80;99.90;;;;;;4220073;28;20204;-90
2022/08/19 08:44:39;;;;;;;11.35;5.50;;;24.00;99.90;;;;;;4226015;28;20242;-96
2022/08/19 08:46:56;;;;;;;13.18;5.07;;;24.10;99.90;;;;;;4217338;28;20554;-90
2022/08/19 08:49:21;;;;;;;10.45;5.13;;;24.30;99.90;;;;;;4230093;28;20191;-91
2022/08/19 08:51:47;;;;;;;9.90;4.60;;;24.10;99.90;;;;;;4240868;28;20219;-92
2022/08/19 08:53:51;;;;;;;9.65;5.45;;;23.90;99.90;;;;;;4222947;28;20212;-92
2022/08/19 08:55:51;;;;;;;10.18;5.47;;;23.80;99.90;;;;;;4224572;28;20199;-92
2022/08/19 08:57:55;;;;;;;12.07;5.25;;;24.00;99.90;;;;;;4222725;28;20218;-92
2022/08/19 09:00:02;;;;;;;8.48;4.97;;;23.90;99.90;;;;;;4219668;28;20534;-91
2022/08/19 09:02:04;;;;;;;14.10;5.22;;;24.20;99.90;;;;;;4219618;28;20280;-92
2022/08/19 09:04:06;;;;;;;10.18;5.10;;;24.20;99.90;;;;;;4206595;28;20210;-91
2022/08/19 09:06:33;;;;;;;8.55;4.85;;;24.20;99.90;;;;;;4206130;28;20266;-91
2022/08/19 09:08:57;;;;;;;10.23;5.20;;;24.20;99.90;;;;;;4224327;28;20209;-91
2022/08/19 09:10:58;;;;;;;10.48;4.82;;;24.10;99.90;;;;;;4218730;28;20634;-90
2022/08/19 09:13:23;;;;;;;9.77;4.93;;;23.90;99.90;;;;;;4223031;28;20323;-91
2022/08/19 09:15:31;;;;;;;15.85;5.32;;;23.80;99.90;;;;;;4226141;28;20178;-91
2022/08/19 09:17:33;;;;;;;12.63;4.97;;;23.80;99.90;;;;;;4222037;28;20295;-91
2022/08/19 09:19:46;;;;;;;8.27;5.10;;;23.80;99.90;;;;;;4205761;28;20155;-92
2022/08/19 09:21:47;;;;;;;9.75;5.43;;;23.70;99.90;;;;;;4191690;28;20171;-91
2022/08/19 09:23:52;;;;;;;14.40;6.43;;;23.60;99.90;;;;;;4212781;28;20266;-90
2022/08/19 09:25:59;;;;;;;10.93;5.82;;;23.70;99.90;;;;;;4208699;28;20197;-91
2022/08/19 09:28:04;;;;;;;8.15;5.13;;;23.80;99.90;;;;;;4211550;28;20182;-93
2022/08/19 09:30:07;;;;;;;15.02;6.07;;;23.80;99.90;;;;;;4206123;28;20170;-91
2022/08/19 09:32:11;;;;;;;15.00;5.90;;;23.70;99.90;;;;;;4229360;28;20638;-91
2022/08/19 09:34:12;;;;;;;11.10;6.25;;;23.70;99.90;;;;;;4220587;28;20177;-92
2022/08/19 09:36:33;;;;;;;11.48;5.72;;;23.80;99.90;;;;;;4224893;28;20166;-93
2022/08/19 09:38:47;;;;;;;19.88;6.40;;;23.90;99.90;;;;;;4226308;28;20223;-92
2022/08/19 09:40:51;;;;;;;16.63;6.38;;;23.80;99.90;;;;;;4224710;28;20178;-94
2022/08/19 09:42:52;;;;;;;11.35;6.55;;;23.70;99.90;;;;;;4220591;28;20197;-91
2022/08/19 09:44:53;;;;;;;14.13;5.60;;;23.70;99.90;;;;;;4207876;28;20170;-90
2022/08/19 09:46:56;;;;;;;9.43;6.15;;;23.70;99.90;;;;;;4208329;28;20266;-92
2022/08/19 09:49:01;;;;;;;11.05;5.40;;;23.60;99.90;;;;;;4225361;28;20280;-91
2022/08/19 09:51:08;;;;;;;10.75;5.57;;;23.70;99.90;;;;;;4225134;28;20179;-93
2022/08/19 09:53:09;;;;;;;12.02;5.68;;;23.80;99.90;;;;;;4225908;28;20158;-91
2022/08/19 09:55:11;;;;;;;11.07;5.88;;;24.10;99.90;;;;;;4222533;28;20205;-91
2022/08/19 09:57:13;;;;;;;11.13;5.88;;;24.00;99.90;;;;;;4210645;28;20179;-91
2022/08/19 09:59:14;;;;;;;12.65;5.97;;;24.10;99.90;;;;;;4212231;28;20262;-91
2022/08/19 10:01:24;;;;;;;10.75;5.93;;;24.30;99.90;;;;;;4227565;28;20154;-92
2022/08/19 10:03:30;;;;;;;9.95;5.47;;;24.10;99.90;;;;;;4244800;28;20199;-95
2022/08/19 10:05:47;;;;;;;8.48;4.70;;;23.90;99.90;;;;;;4226333;28;20186;-91
2022/08/19 10:07:48;;;;;;;7.65;4.20;;;23.90;99.90;;;;;;4229979;28;20208;-94
2022/08/19 10:09:49;;;;;;;7.35;3.42;;;23.80;99.90;;;;;;4207488;28;20155;-91
2022/08/19 10:11:49;;;;;;;9.43;3.17;;;23.90;99.90;;;;;;4227016;28;20174;-92
2022/08/19 10:13:54;;;;;;;12.35;4.00;;;24.00;99.90;;;;;;4225385;28;20189;-92
2022/08/19 10:16:05;;;;;;;5.80;3.75;;;24.10;99.90;;;;;;4223400;28;20385;-91
2022/08/19 10:18:07;;;;;;;5.85;3.88;;;24.10;99.90;;;;;;4223868;28;20291;-91
2022/08/19 10:20:10;;;;;;;7.15;4.25;;;24.20;99.90;;;;;;4222880;28;20573;-91
2022/08/19 10:22:13;;;;;;;5.90;4.00;;;24.40;99.90;;;;;;4222200;28;20166;-91
2022/08/19 10:24:15;;;;;;;9.77;4.78;;;24.80;99.90;;;;;;4224188;28;20184;-91
2022/08/19 10:26:29;;;;;;;9.43;4.78;;;25.10;99.90;;;;;;4208732;28;20269;-91
2022/08/19 10:28:29;;;;;;;8.73;5.25;;;25.30;99.90;;;;;;4223107;28;20225;-92
2022/08/19 10:30:30;;;;;;;9.95;5.20;;;25.50;99.90;;;;;;4204398;28;20228;-96
2022/08/19 10:32:31;;;;;;;9.10;5.00;;;25.40;99.90;;;;;;4202010;28;20167;-95
2022/08/19 10:34:33;;;;;;;9.68;5.10;;;25.60;99.90;;;;;;4218382;28;20650;-92
2022/08/19 10:36:36;;;;;;;13.15;4.97;;;25.80;99.90;;;;;;4219193;28;20266;-91
2022/08/19 10:38:37;;;;;;;9.00;4.28;;;25.80;99.90;;;;;;4219310;28;20217;-92
2022/08/19 10:40:38;;;;;;;8.50;4.30;;;25.80;99.90;;;;;;4221265;28;20249;-92
2022/08/19 10:42:39;;;;;;;6.60;3.65;;;26.00;99.90;;;;;;4201866;28;20179;-92
2022/08/19 10:44:40;;;;;;;5.90;3.22;;;25.90;99.90;;;;;;4203404;28;20167;-92
2022/08/19 10:46:44;;;;;;;5.60;3.40;;;25.70;99.90;;;;;;4217477;28;20181;-94
2022/08/19 10:48:45;;;;;;;8.52;4.30;;;25.60;99.90;;;;;;4218820;28;20301;-93
2022/08/19 10:53:12;;;;;;;9.32;3.70;;;25.20;99.90;;;;;;4194784;28;20248;-95
2022/08/19 10:57:40;;;;;;;10.75;6.10;;;25.30;99.90;;;;;;4203625;28;20216;-92
2022/08/19 10:59:41;;;;;;;9.35;5.45;;;25.30;99.90;;;;;;4218780;28;20182;-92
2022/08/19 11:01:44;;;;;;;8.07;5.40;;;25.20;99.90;;;;;;4201466;28;20643;-91
2022/08/19 11:03:45;;;;;;;8.05;6.30;;;25.10;99.90;;;;;;4203200;28;20708;-91